MSC Magnifica — 3FLO4 — position and weather

sailwx.info

Track history (hours):
 
Tides and Currents Weather Stations Pressure Air Temp Water Temp Dewpoint Dewpoint Depression Visibility Wind Speed Wind Dir Waves Ship Positions

MSC Magnifica

Last reported at 2017-Sep-20 00:31 UTC. Time now 2017-Sep-20 00:35 UTC.
Position N 43°09' E 007°48'.

Length 294 m; draft 7.8 m.

Type: Passenger vessel. MMSI: 352594000.

Date/timePositionNaut miles runAvg speedWind from/ knotsBaromVisibWave heightAir tempDewpointWater temp
2017-Sep-20 00:31N 43°09' E 007°48'1020.5
2017-Sep-20 00:00N 43°00' E 007°39'1220.8
2017-Sep-19 23:24N 42°51' E 007°29'23919.6
2017-Sep-19 11:13N 40°23' E 003°17'520.7
2017-Sep-19 10:57N 40°19' E 003°12'1020.6
2017-Sep-19 10:29N 40°12' E 003°03'1020.6
2017-Sep-19 10:00N 40°06' E 002°53'1121.4
2017-Sep-19 09:30N 39°58' E 002°43'1121.2
2017-Sep-19 09:00N 39°51' E 002°33'1121.2
2017-Sep-19 08:30N 39°44' E 002°23'1121.7
2017-Sep-19 08:00N 39°36' E 002°12'1121.8
2017-Sep-19 07:30N 39°27' E 002°05'1121.6
2017-Sep-19 07:00N 39°18' E 001°57'1122.1
2017-Sep-19 06:30N 39°09' E 001°49'1121.7
2017-Sep-19 06:00N 39°00' E 001°42'1121.2
2017-Sep-19 05:30N 38°54' E 001°31'3 0.3
2017-Sep-18 16:56N 38°54' E 001°27'4 8.7
2017-Sep-18 16:30N 38°55' E 001°31'918.8
2017-Sep-18 16:00N 39°00' E 001°41'918.2
2017-Sep-18 15:30N 39°05' E 001°51'917.9
2017-Sep-18 15:00N 39°10' E 002°01'917.7
2017-Sep-18 14:30N 39°15' E 002°11'917.3
2017-Sep-18 14:00N 39°19' E 002°20'917.4
2017-Sep-18 13:30N 39°24' E 002°30'817.0
2017-Sep-18 13:00N 39°30' E 002°37'3 5.5
2017-Sep-18 12:29N 39°33' E 002°38'0 0.0
2017-Sep-18 11:59N 39°33' E 002°38'0 0.0
2017-Sep-18 11:29N 39°33' E 002°38'0 0.0
2017-Sep-18 10:58N 39°33' E 002°38'0 0.0
2017-Sep-18 10:27N 39°33' E 002°38'0 0.0
2017-Sep-18 09:57N 39°33' E 002°38'0 0.0
2017-Sep-18 09:30N 39°33' E 002°38'0 0.0
2017-Sep-18 09:00N 39°33' E 002°38'0 0.0
2017-Sep-18 08:30N 39°33' E 002°38'0 0.0
2017-Sep-18 08:00N 39°33' E 002°38'0 0.0
2017-Sep-18 07:29N 39°33' E 002°38'0 0.0
2017-Sep-18 06:59N 39°33' E 002°38'0 0.2
2017-Sep-18 06:30N 39°33' E 002°38'1 2.0
2017-Sep-18 06:00N 39°32' E 002°38'815.3
2017-Sep-18 05:30N 39°25' E 002°34'815.9
2017-Sep-18 05:00N 39°27' E 002°24'917.5
2017-Sep-18 04:30N 39°32' E 002°15'816.7
2017-Sep-18 04:00N 39°41' E 002°14'817.3
2017-Sep-18 03:30N 39°49' E 002°14'917.0
2017-Sep-18 03:00N 39°58' E 002°13'917.1
2017-Sep-18 02:30N 40°06' E 002°13'917.2
2017-Sep-18 02:00N 40°15' E 002°13'917.1
2017-Sep-18 01:30N 40°23' E 002°13'917.2
2017-Sep-18 01:00N 40°32' E 002°12'917.6
2017-Sep-18 00:30N 40°41' E 002°12'917.7
2017-Sep-18 00:00N 40°50' E 002°12'917.8
2017-Sep-17 23:30N 40°59' E 002°12'917.9
2017-Sep-17 23:00N 41°08' E 002°11'1017.3
2017-Sep-17 22:24N 41°18' E 002°10'3 0.3
2017-Sep-17 12:38N 41°21' E 002°10'2 5.8
2017-Sep-17 12:16N 41°18' E 002°10'24818.5
2017-Sep-16 22:49N 43°10' E 007°10'717.4
2017-Sep-16 22:26N 43°14' E 007°17'5817.4
2017-Sep-16 19:06N 43°52' E 008°18'217.5
2017-Sep-16 18:59N 43°53' E 008°20'817.5
2017-Sep-16 18:30N 43°59' E 008°28'917.5
2017-Sep-16 18:00N 44°05' E 008°38'918.1
2017-Sep-16 17:30N 44°11' E 008°47'1020.1
2017-Sep-16 17:00N 44°18' E 008°56'612.3
2017-Sep-16 16:30N 44°24' E 008°55'0 0.7
2017-Sep-16 16:00N 44°25' E 008°55'0 0.0
2017-Sep-16 15:30N 44°25' E 008°55'0 0.0
2017-Sep-16 15:00N 44°25' E 008°55'0 0.0
2017-Sep-16 14:30N 44°25' E 008°55'0 0.0
2017-Sep-16 14:00N 44°25' E 008°55'0 0.0
2017-Sep-16 13:30N 44°25' E 008°55'0 0.0
2017-Sep-16 13:00N 44°25' E 008°55'0 0.0
2017-Sep-16 12:30N 44°25' E 008°55'0 0.0
2017-Sep-16 12:00N 44°25' E 008°55'0 0.0
2017-Sep-16 11:30N 44°25' E 008°55'0 0.0
2017-Sep-16 11:00N 44°25' E 008°55'0 0.0
2017-Sep-16 10:29N 44°25' E 008°55'0 0.0
2017-Sep-16 09:59N 44°25' E 008°55'0 0.0
2017-Sep-16 09:29N 44°25' E 008°55'0 0.0
2017-Sep-16 08:59N 44°25' E 008°55'0 0.0
2017-Sep-16 08:29N 44°25' E 008°55'0 0.0
2017-Sep-16 07:59N 44°25' E 008°55'0 0.0
2017-Sep-16 07:28N 44°25' E 008°55'0 0.0
2017-Sep-16 06:58N 44°25' E 008°55'0 0.0
2017-Sep-16 06:28N 44°25' E 008°55'0 0.0
2017-Sep-16 05:58N 44°25' E 008°55'1 1.1
2017-Sep-16 05:30N 44°24' E 008°55'3 5.1
2017-Sep-16 05:00N 44°22' E 008°57'3 6.9
2017-Sep-16 04:30N 44°19' E 008°59'5 9.3
2017-Sep-16 04:00N 44°15' E 008°56'5 9.5
2017-Sep-16 03:30N 44°11' E 008°52'5 9.6
2017-Sep-16 03:00N 44°07' E 008°48'5 9.6
2017-Sep-16 02:30N 44°03' E 008°44'5 9.3
2017-Sep-16 02:00N 43°60' E 008°40'5 9.4
2017-Sep-16 01:30N 43°56' E 008°36'5 9.4
2017-Sep-16 01:00N 43°52' E 008°32'5 9.2
2017-Sep-16 00:30N 43°49' E 008°28'5 9.2
2017-Sep-16 00:00N 43°45' E 008°24'5 9.5
2017-Sep-15 23:30N 43°41' E 008°20'510.2
2017-Sep-15 23:00N 43°37' E 008°15'510.4
2017-Sep-15 22:30N 43°34' E 008°10'6 0.3
2017-Sep-15 01:04N 43°36' E 008°02'1 7.6
2017-Sep-15 00:58N 43°36' E 008°03'5 7.9
2017-Sep-15 00:21N 43°34' E 008°10'2 6.7
2017-Sep-15 00:00N 43°35' E 008°13'4 7.5
2017-Sep-14 23:30N 43°38' E 008°16'4 7.7
2017-Sep-14 23:00N 43°41' E 008°19'4 7.8
2017-Sep-14 22:30N 43°44' E 008°22'4 7.9
2017-Sep-14 22:01N 43°47' E 008°26'4 8.0
2017-Sep-14 21:30N 43°51' E 008°29'4 8.1
2017-Sep-14 21:00N 43°54' E 008°32'4 8.2
2017-Sep-14 20:31N 43°57' E 008°36'4 8.4
2017-Sep-14 20:01N 44°00' E 008°39'4 8.3
2017-Sep-14 19:31N 44°04' E 008°43'4 8.6
2017-Sep-14 19:00N 44°07' E 008°46'613.0
2017-Sep-14 18:31N 44°12' E 008°52'612.7
2017-Sep-14 18:01N 44°18' E 008°57'611.1
2017-Sep-14 17:31N 44°23' E 008°56'2 3.4
2017-Sep-14 17:01N 44°25' E 008°55'0 0.0
2017-Sep-14 16:25N 44°25' E 008°55'0 0.0
2017-Sep-14 15:57N 44°25' E 008°55'0 0.0
2017-Sep-14 15:27N 44°25' E 008°55'0 0.0
2017-Sep-14 14:57N 44°25' E 008°55'0 0.0
2017-Sep-14 14:27N 44°25' E 008°55'0 0.0
2017-Sep-14 13:59N 44°25' E 008°55'0 0.0
2017-Sep-14 13:29N 44°25' E 008°55'0 0.0
2017-Sep-14 12:59N 44°25' E 008°55'0 0.0
2017-Sep-14 12:29N 44°25' E 008°55'0 0.0
2017-Sep-14 11:59N 44°25' E 008°55'0 0.0
2017-Sep-14 11:29N 44°25' E 008°55'0 0.0
2017-Sep-14 10:59N 44°25' E 008°55'0 0.0
2017-Sep-14 10:23N 44°25' E 008°55'0 0.0
2017-Sep-14 09:59N 44°25' E 008°55'0 0.0
2017-Sep-14 09:28N 44°25' E 008°55'0 0.0
2017-Sep-14 08:58N 44°25' E 008°55'0 0.0
2017-Sep-14 08:24N 44°25' E 008°55'0 0.0
2017-Sep-14 08:00N 44°25' E 008°55'0 0.0
2017-Sep-14 07:30N 44°25' E 008°55'0 0.0
2017-Sep-14 07:00N 44°25' E 008°55'0 0.5
2017-Sep-14 06:30N 44°24' E 008°55'2 3.0
2017-Sep-14 06:00N 44°23' E 008°56'714.2
2017-Sep-14 05:30N 44°16' E 008°55'1020.0
2017-Sep-14 05:00N 44°09' E 008°46'1020.1
2017-Sep-14 04:31N 44°03' E 008°35'1019.9
2017-Sep-14 04:00N 43°56' E 008°24'5419.8
2017-Sep-14 01:17N 43°21' E 007°28'720.5
2017-Sep-14 00:58N 43°16' E 007°21'920.7
2017-Sep-14 00:30N 43°10' E 007°12'1020.2
2017-Sep-13 23:59N 43°03' E 007°01'5321.4
2017-Sep-13 21:30N 42°38' E 005°57'1122.0
2017-Sep-13 21:00N 42°34' E 005°44'1121.9
2017-Sep-13 20:30N 42°29' E 005°31'1121.7
2017-Sep-13 20:00N 42°24' E 005°17'1121.9
2017-Sep-13 19:30N 42°19' E 005°04'1122.3
2017-Sep-13 19:00N 42°13' E 004°51'1122.5
2017-Sep-13 18:31N 42°08' E 004°37'1122.4
2017-Sep-13 18:00N 42°03' E 004°24'1122.6
2017-Sep-13 17:30N 41°58' E 004°10'1122.0
2017-Sep-13 17:00N 41°53' E 003°57'1322.3
2017-Sep-13 16:26N 41°47' E 003°42'5622.7
2017-Sep-13 13:59N 41°22' E 002°36'1920.2
2017-Sep-13 13:02N 41°17' E 002°11'5 1.0
2017-Sep-13 07:50N 41°22' E 002°11'0 0.0
2017-Sep-13 05:50N 41°22' E 002°11'1 3.2
2017-Sep-13 05:30N 41°21' E 002°10'8 8.7
2017-Sep-13 04:35N 41°13' E 002°09'111.3
2017-Sep-13 04:30N 41°12' E 002°09'714.4
2017-Sep-13 04:00N 41°06' E 002°05'815.9
2017-Sep-13 03:29N 40°58' E 001°60'816.0
2017-Sep-13 03:00N 40°51' E 001°55'816.1
2017-Sep-13 02:30N 40°44' E 001°50'816.5
2017-Sep-13 02:00N 40°37' E 001°45'816.5
2017-Sep-13 01:30N 40°30' E 001°40'816.7
2017-Sep-13 01:00N 40°22' E 001°35'916.9
2017-Sep-13 00:30N 40°15' E 001°30'917.0
2017-Sep-13 00:00N 40°07' E 001°25'917.3
2017-Sep-12 23:30N 39°60' E 001°20'917.6
2017-Sep-12 23:00N 39°52' E 001°14'917.7
2017-Sep-12 22:30N 39°44' E 001°09'917.9
2017-Sep-12 21:59N 39°35' E 001°03'817.4
2017-Sep-12 21:29N 39°28' E 000°58'917.0
2017-Sep-12 20:59N 39°20' E 000°53'917.1
2017-Sep-12 20:26N 39°12' E 000°48'717.2
2017-Sep-12 20:00N 39°05' E 000°43'8816.5
2017-Sep-12 14:39N 37°50' W 000°16'313.6
2017-Sep-12 14:26N 37°48' W 000°18'613.7
2017-Sep-12 14:00N 37°43' W 000°23'813.6
2017-Sep-12 13:26N 37°36' W 000°28'613.3
2017-Sep-12 13:00N 37°32' W 000°32'713.2
2017-Sep-12 12:30N 37°28' W 000°39'613.3
2017-Sep-12 12:00N 37°23' W 000°45'713.3
2017-Sep-12 11:30N 37°19' W 000°51'713.6
2017-Sep-12 11:00N 37°14' W 000°57'713.7
2017-Sep-12 10:29N 37°09' W 001°04'1514.6
2017-Sep-12 09:27N 36°59' W 001°18'18417.8
2017-Sep-11 23:08N 36°06' W 004°57'419.2
2017-Sep-11 22:55N 36°06' W 005°02'718.0
2017-Sep-11 22:31N 36°05' W 005°11'917.7
2017-Sep-11 22:01N 36°05' W 005°22'4 7.7
2017-Sep-11 21:30N 36°09' W 005°22'0 0.1
2017-Sep-11 21:00N 36°09' W 005°22'0 0.0
2017-Sep-11 20:22N 36°09' W 005°22'0 0.0
2017-Sep-11 19:58N 36°09' W 005°22'0 0.0
2017-Sep-11 19:30N 36°09' W 005°22'0 0.0
2017-Sep-11 18:11N 36°09' W 005°22'0 0.0
2017-Sep-11 17:59N 36°09' W 005°22'3 0.9
2017-Sep-11 15:14N 36°06' W 005°23'2 8.5
2017-Sep-11 15:00N 36°05' W 005°22'815.9
2017-Sep-11 14:30N 35°58' W 005°28'9217.6
2017-Sep-11 09:17N 36°09' W 007°21'619.3
2017-Sep-11 09:00N 36°11' W 007°27'1019.1
2017-Sep-11 08:30N 36°13' W 007°39'1119.3
2017-Sep-11 07:56N 36°16' W 007°52'919.3
2017-Sep-11 07:29N 36°18' W 008°02'919.7
2017-Sep-11 07:00N 36°21' W 008°14'1019.6
2017-Sep-11 06:29N 36°23' W 008°26'919.6
2017-Sep-11 06:00N 36°25' W 008°37'1019.6
2017-Sep-11 05:29N 36°28' W 008°49'919.6
2017-Sep-11 05:00N 36°31' W 009°01'1019.6
2017-Sep-11 04:29N 36°34' W 009°12'918.9
2017-Sep-11 04:00N 36°39' W 009°22'1020.0
2017-Sep-11 03:30N 36°47' W 009°30'1219.6
2017-Sep-11 02:53N 36°58' W 009°35'2120.0
2017-Sep-11 01:51N 37°19' W 009°36'720.6
2017-Sep-11 01:30N 37°26' W 009°35'1020.4
2017-Sep-11 01:00N 37°36' W 009°34'1020.1
2017-Sep-11 00:30N 37°46' W 009°32'1019.9
2017-Sep-11 00:00N 37°56' W 009°31'1019.9
2017-Sep-10 23:30N 38°06' W 009°29'1020.0
2017-Sep-10 23:00N 38°16' W 009°27'1020.1
2017-Sep-10 22:30N 38°26' W 009°25'1020.2
2017-Sep-10 22:00N 38°36' W 009°23'815.5
2017-Sep-10 21:30N 38°41' W 009°16'611.9
2017-Sep-10 21:00N 38°42' W 009°08'1 1.6
2017-Sep-10 20:27N 38°43' W 009°07'0 0.0
2017-Sep-10 20:00N 38°43' W 009°07'0 0.0
2017-Sep-10 19:30N 38°43' W 009°07'0 0.0
2017-Sep-10 19:00N 38°43' W 009°07'0 0.0
2017-Sep-10 18:30N 38°43' W 009°07'0 0.0
2017-Sep-10 18:00N 38°43' W 009°07'0 0.0
2017-Sep-10 17:30N 38°43' W 009°07'0 0.0
2017-Sep-10 16:59N 38°43' W 009°07'0 0.0
2017-Sep-10 16:28N 38°43' W 009°07'0 0.0
2017-Sep-10 15:59N 38°43' W 009°07'0 0.0
2017-Sep-10 15:30N 38°43' W 009°07'0 0.0
2017-Sep-10 15:00N 38°43' W 009°07'0 0.0
2017-Sep-10 14:00N 38°43' W 009°07'0 0.0
2017-Sep-10 13:30N 38°43' W 009°07'0 0.0
2017-Sep-10 13:00N 38°43' W 009°07'0 0.0
2017-Sep-10 12:30N 38°43' W 009°07'0 0.0
2017-Sep-10 11:59N 38°43' W 009°07'0 1.0
2017-Sep-10 11:31N 38°43' W 009°07'5 9.2
2017-Sep-10 11:00N 38°41' W 009°12'612.5
2017-Sep-10 10:30N 38°39' W 009°20'815.6
2017-Sep-10 10:00N 38°35' W 009°28'1019.2
2017-Sep-10 09:30N 38°34' W 009°40'918.9
2017-Sep-10 09:00N 38°33' W 009°53'918.1
2017-Sep-10 08:30N 38°35' W 010°04'1019.3
2017-Sep-10 08:00N 38°45' W 010°06'1019.8
2017-Sep-10 07:30N 38°55' W 010°06'1121.4
2017-Sep-10 07:00N 39°06' W 010°06'1121.3
2017-Sep-10 06:30N 39°16' W 010°06'1120.9
2017-Sep-10 06:00N 39°27' W 010°06'1121.2
2017-Sep-10 05:30N 39°37' W 010°06'  
Track history (hours):
 
Tides and Currents Weather Stations Pressure Air Temp Water Temp Dewpoint Dewpoint Depression Visibility Wind Speed Wind Dir Waves Ship Positions

MSC Magnifica

Last reported at 2017-Sep-20 00:31 UTC. Time now 2017-Sep-20 00:35 UTC.
Position N 43°09' E 007°48'.

Length 294 m; draft 7.8 m.

Type: Passenger vessel. MMSI: 352594000.

Date/timePositionNaut miles runAvg speedWind from/ knotsBaromVisibWave heightAir tempDewpointWater temp
2017-Sep-20 00:31N 43°09' E 007°48'1020.5
2017-Sep-20 00:00N 43°00' E 007°39'1220.8
2017-Sep-19 23:24N 42°51' E 007°29'23919.6
2017-Sep-19 11:13N 40°23' E 003°17'520.7
2017-Sep-19 10:57N 40°19' E 003°12'1020.6
2017-Sep-19 10:29N 40°12' E 003°03'1020.6
2017-Sep-19 10:00N 40°06' E 002°53'1121.4
2017-Sep-19 09:30N 39°58' E 002°43'1121.2
2017-Sep-19 09:00N 39°51' E 002°33'1121.2
2017-Sep-19 08:30N 39°44' E 002°23'1121.7
2017-Sep-19 08:00N 39°36' E 002°12'1121.8
2017-Sep-19 07:30N 39°27' E 002°05'1121.6
2017-Sep-19 07:00N 39°18' E 001°57'1122.1
2017-Sep-19 06:30N 39°09' E 001°49'1121.7
2017-Sep-19 06:00N 39°00' E 001°42'1121.2
2017-Sep-19 05:30N 38°54' E 001°31'3 0.3
2017-Sep-18 16:56N 38°54' E 001°27'4 8.7
2017-Sep-18 16:30N 38°55' E 001°31'918.8
2017-Sep-18 16:00N 39°00' E 001°41'918.2
2017-Sep-18 15:30N 39°05' E 001°51'917.9
2017-Sep-18 15:00N 39°10' E 002°01'917.7
2017-Sep-18 14:30N 39°15' E 002°11'917.3
2017-Sep-18 14:00N 39°19' E 002°20'917.4
2017-Sep-18 13:30N 39°24' E 002°30'817.0
2017-Sep-18 13:00N 39°30' E 002°37'3 5.5
2017-Sep-18 12:29N 39°33' E 002°38'0 0.0
2017-Sep-18 11:59N 39°33' E 002°38'0 0.0
2017-Sep-18 11:29N 39°33' E 002°38'0 0.0
2017-Sep-18 10:58N 39°33' E 002°38'0 0.0
2017-Sep-18 10:27N 39°33' E 002°38'0 0.0
2017-Sep-18 09:57N 39°33' E 002°38'0 0.0
2017-Sep-18 09:30N 39°33' E 002°38'0 0.0
2017-Sep-18 09:00N 39°33' E 002°38'0 0.0
2017-Sep-18 08:30N 39°33' E 002°38'0 0.0
2017-Sep-18 08:00N 39°33' E 002°38'0 0.0
2017-Sep-18 07:29N 39°33' E 002°38'0 0.0
2017-Sep-18 06:59N 39°33' E 002°38'0 0.2
2017-Sep-18 06:30N 39°33' E 002°38'1 2.0
2017-Sep-18 06:00N 39°32' E 002°38'815.3
2017-Sep-18 05:30N 39°25' E 002°34'815.9
2017-Sep-18 05:00N 39°27' E 002°24'917.5
2017-Sep-18 04:30N 39°32' E 002°15'816.7
2017-Sep-18 04:00N 39°41' E 002°14'817.3
2017-Sep-18 03:30N 39°49' E 002°14'917.0
2017-Sep-18 03:00N 39°58' E 002°13'917.1
2017-Sep-18 02:30N 40°06' E 002°13'917.2
2017-Sep-18 02:00N 40°15' E 002°13'917.1
2017-Sep-18 01:30N 40°23' E 002°13'917.2
2017-Sep-18 01:00N 40°32' E 002°12'917.6
2017-Sep-18 00:30N 40°41' E 002°12'917.7
2017-Sep-18 00:00N 40°50' E 002°12'917.8
2017-Sep-17 23:30N 40°59' E 002°12'917.9
2017-Sep-17 23:00N 41°08' E 002°11'1017.3
2017-Sep-17 22:24N 41°18' E 002°10'3 0.3
2017-Sep-17 12:38N 41°21' E 002°10'2 5.8
2017-Sep-17 12:16N 41°18' E 002°10'24818.5
2017-Sep-16 22:49N 43°10' E 007°10'717.4
2017-Sep-16 22:26N 43°14' E 007°17'5817.4
2017-Sep-16 19:06N 43°52' E 008°18'217.5
2017-Sep-16 18:59N 43°53' E 008°20'817.5
2017-Sep-16 18:30N 43°59' E 008°28'917.5
2017-Sep-16 18:00N 44°05' E 008°38'918.1
2017-Sep-16 17:30N 44°11' E 008°47'1020.1
2017-Sep-16 17:00N 44°18' E 008°56'612.3
2017-Sep-16 16:30N 44°24' E 008°55'0 0.7
2017-Sep-16 16:00N 44°25' E 008°55'0 0.0
2017-Sep-16 15:30N 44°25' E 008°55'0 0.0
2017-Sep-16 15:00N 44°25' E 008°55'0 0.0
2017-Sep-16 14:30N 44°25' E 008°55'0 0.0
2017-Sep-16 14:00N 44°25' E 008°55'0 0.0
2017-Sep-16 13:30N 44°25' E 008°55'0 0.0
2017-Sep-16 13:00N 44°25' E 008°55'0 0.0
2017-Sep-16 12:30N 44°25' E 008°55'0 0.0
2017-Sep-16 12:00N 44°25' E 008°55'0 0.0
2017-Sep-16 11:30N 44°25' E 008°55'0 0.0
2017-Sep-16 11:00N 44°25' E 008°55'0 0.0
2017-Sep-16 10:29N 44°25' E 008°55'0 0.0
2017-Sep-16 09:59N 44°25' E 008°55'0 0.0
2017-Sep-16 09:29N 44°25' E 008°55'0 0.0
2017-Sep-16 08:59N 44°25' E 008°55'0 0.0
2017-Sep-16 08:29N 44°25' E 008°55'0 0.0
2017-Sep-16 07:59N 44°25' E 008°55'0 0.0
2017-Sep-16 07:28N 44°25' E 008°55'0 0.0
2017-Sep-16 06:58N 44°25' E 008°55'0 0.0
2017-Sep-16 06:28N 44°25' E 008°55'0 0.0
2017-Sep-16 05:58N 44°25' E 008°55'1 1.1
2017-Sep-16 05:30N 44°24' E 008°55'3 5.1
2017-Sep-16 05:00N 44°22' E 008°57'3 6.9
2017-Sep-16 04:30N 44°19' E 008°59'5 9.3
2017-Sep-16 04:00N 44°15' E 008°56'5 9.5
2017-Sep-16 03:30N 44°11' E 008°52'5 9.6
2017-Sep-16 03:00N 44°07' E 008°48'5 9.6
2017-Sep-16 02:30N 44°03' E 008°44'5 9.3
2017-Sep-16 02:00N 43°60' E 008°40'5 9.4
2017-Sep-16 01:30N 43°56' E 008°36'5 9.4
2017-Sep-16 01:00N 43°52' E 008°32'5 9.2
2017-Sep-16 00:30N 43°49' E 008°28'5 9.2
2017-Sep-16 00:00N 43°45' E 008°24'5 9.5
2017-Sep-15 23:30N 43°41' E 008°20'510.2
2017-Sep-15 23:00N 43°37' E 008°15'510.4
2017-Sep-15 22:30N 43°34' E 008°10'6 0.3
2017-Sep-15 01:04N 43°36' E 008°02'1 7.6
2017-Sep-15 00:58N 43°36' E 008°03'5 7.9
2017-Sep-15 00:21N 43°34' E 008°10'2 6.7
2017-Sep-15 00:00N 43°35' E 008°13'4 7.5
2017-Sep-14 23:30N 43°38' E 008°16'4 7.7
2017-Sep-14 23:00N 43°41' E 008°19'4 7.8
2017-Sep-14 22:30N 43°44' E 008°22'4 7.9
2017-Sep-14 22:01N 43°47' E 008°26'4 8.0
2017-Sep-14 21:30N 43°51' E 008°29'4 8.1
2017-Sep-14 21:00N 43°54' E 008°32'4 8.2
2017-Sep-14 20:31N 43°57' E 008°36'4 8.4
2017-Sep-14 20:01N 44°00' E 008°39'4 8.3
2017-Sep-14 19:31N 44°04' E 008°43'4 8.6
2017-Sep-14 19:00N 44°07' E 008°46'613.0
2017-Sep-14 18:31N 44°12' E 008°52'612.7
2017-Sep-14 18:01N 44°18' E 008°57'611.1
2017-Sep-14 17:31N 44°23' E 008°56'2 3.4
2017-Sep-14 17:01N 44°25' E 008°55'0 0.0
2017-Sep-14 16:25N 44°25' E 008°55'0 0.0
2017-Sep-14 15:57N 44°25' E 008°55'0 0.0
2017-Sep-14 15:27N 44°25' E 008°55'0 0.0
2017-Sep-14 14:57N 44°25' E 008°55'0 0.0
2017-Sep-14 14:27N 44°25' E 008°55'0 0.0
2017-Sep-14 13:59N 44°25' E 008°55'0 0.0
2017-Sep-14 13:29N 44°25' E 008°55'0 0.0
2017-Sep-14 12:59N 44°25' E 008°55'0 0.0
2017-Sep-14 12:29N 44°25' E 008°55'0 0.0
2017-Sep-14 11:59N 44°25' E 008°55'0 0.0
2017-Sep-14 11:29N 44°25' E 008°55'0 0.0
2017-Sep-14 10:59N 44°25' E 008°55'0 0.0
2017-Sep-14 10:23N 44°25' E 008°55'0 0.0
2017-Sep-14 09:59N 44°25' E 008°55'0 0.0
2017-Sep-14 09:28N 44°25' E 008°55'0 0.0
2017-Sep-14 08:58N 44°25' E 008°55'0 0.0
2017-Sep-14 08:24N 44°25' E 008°55'0 0.0
2017-Sep-14 08:00N 44°25' E 008°55'0 0.0
2017-Sep-14 07:30N 44°25' E 008°55'0 0.0
2017-Sep-14 07:00N 44°25' E 008°55'0 0.5
2017-Sep-14 06:30N 44°24' E 008°55'2 3.0
2017-Sep-14 06:00N 44°23' E 008°56'714.2
2017-Sep-14 05:30N 44°16' E 008°55'1020.0
2017-Sep-14 05:00N 44°09' E 008°46'1020.1
2017-Sep-14 04:31N 44°03' E 008°35'1019.9
2017-Sep-14 04:00N 43°56' E 008°24'5419.8
2017-Sep-14 01:17N 43°21' E 007°28'720.5
2017-Sep-14 00:58N 43°16' E 007°21'920.7
2017-Sep-14 00:30N 43°10' E 007°12'1020.2
2017-Sep-13 23:59N 43°03' E 007°01'5321.4
2017-Sep-13 21:30N 42°38' E 005°57'1122.0
2017-Sep-13 21:00N 42°34' E 005°44'1121.9
2017-Sep-13 20:30N 42°29' E 005°31'1121.7
2017-Sep-13 20:00N 42°24' E 005°17'1121.9
2017-Sep-13 19:30N 42°19' E 005°04'1122.3
2017-Sep-13 19:00N 42°13' E 004°51'1122.5
2017-Sep-13 18:31N 42°08' E 004°37'1122.4
2017-Sep-13 18:00N 42°03' E 004°24'1122.6
2017-Sep-13 17:30N 41°58' E 004°10'1122.0
2017-Sep-13 17:00N 41°53' E 003°57'1322.3
2017-Sep-13 16:26N 41°47' E 003°42'5622.7
2017-Sep-13 13:59N 41°22' E 002°36'1920.2
2017-Sep-13 13:02N 41°17' E 002°11'5 1.0
2017-Sep-13 07:50N 41°22' E 002°11'0 0.0
2017-Sep-13 05:50N 41°22' E 002°11'1 3.2
2017-Sep-13 05:30N 41°21' E 002°10'8 8.7
2017-Sep-13 04:35N 41°13' E 002°09'111.3
2017-Sep-13 04:30N 41°12' E 002°09'714.4
2017-Sep-13 04:00N 41°06' E 002°05'815.9
2017-Sep-13 03:29N 40°58' E 001°60'816.0
2017-Sep-13 03:00N 40°51' E 001°55'816.1
2017-Sep-13 02:30N 40°44' E 001°50'816.5
2017-Sep-13 02:00N 40°37' E 001°45'816.5
2017-Sep-13 01:30N 40°30' E 001°40'816.7
2017-Sep-13 01:00N 40°22' E 001°35'916.9
2017-Sep-13 00:30N 40°15' E 001°30'917.0
2017-Sep-13 00:00N 40°07' E 001°25'917.3
2017-Sep-12 23:30N 39°60' E 001°20'917.6
2017-Sep-12 23:00N 39°52' E 001°14'917.7
2017-Sep-12 22:30N 39°44' E 001°09'917.9
2017-Sep-12 21:59N 39°35' E 001°03'817.4
2017-Sep-12 21:29N 39°28' E 000°58'917.0
2017-Sep-12 20:59N 39°20' E 000°53'917.1
2017-Sep-12 20:26N 39°12' E 000°48'717.2
2017-Sep-12 20:00N 39°05' E 000°43'8816.5
2017-Sep-12 14:39N 37°50' W 000°16'313.6
2017-Sep-12 14:26N 37°48' W 000°18'613.7
2017-Sep-12 14:00N 37°43' W 000°23'813.6
2017-Sep-12 13:26N 37°36' W 000°28'613.3
2017-Sep-12 13:00N 37°32' W 000°32'713.2
2017-Sep-12 12:30N 37°28' W 000°39'613.3
2017-Sep-12 12:00N 37°23' W 000°45'713.3
2017-Sep-12 11:30N 37°19' W 000°51'713.6
2017-Sep-12 11:00N 37°14' W 000°57'713.7
2017-Sep-12 10:29N 37°09' W 001°04'1514.6
2017-Sep-12 09:27N 36°59' W 001°18'18417.8
2017-Sep-11 23:08N 36°06' W 004°57'419.2
2017-Sep-11 22:55N 36°06' W 005°02'718.0
2017-Sep-11 22:31N 36°05' W 005°11'917.7
2017-Sep-11 22:01N 36°05' W 005°22'4 7.7
2017-Sep-11 21:30N 36°09' W 005°22'0 0.1
2017-Sep-11 21:00N 36°09' W 005°22'0 0.0
2017-Sep-11 20:22N 36°09' W 005°22'0 0.0
2017-Sep-11 19:58N 36°09' W 005°22'0 0.0
2017-Sep-11 19:30N 36°09' W 005°22'0 0.0
2017-Sep-11 18:11N 36°09' W 005°22'0 0.0
2017-Sep-11 17:59N 36°09' W 005°22'3 0.9
2017-Sep-11 15:14N 36°06' W 005°23'2 8.5
2017-Sep-11 15:00N 36°05' W 005°22'815.9
2017-Sep-11 14:30N 35°58' W 005°28'9217.6
2017-Sep-11 09:17N 36°09' W 007°21'619.3
2017-Sep-11 09:00N 36°11' W 007°27'1019.1
2017-Sep-11 08:30N 36°13' W 007°39'1119.3
2017-Sep-11 07:56N 36°16' W 007°52'919.3
2017-Sep-11 07:29N 36°18' W 008°02'919.7
2017-Sep-11 07:00N 36°21' W 008°14'1019.6
2017-Sep-11 06:29N 36°23' W 008°26'919.6
2017-Sep-11 06:00N 36°25' W 008°37'1019.6
2017-Sep-11 05:29N 36°28' W 008°49'919.6
2017-Sep-11 05:00N 36°31' W 009°01'1019.6
2017-Sep-11 04:29N 36°34' W 009°12'918.9
2017-Sep-11 04:00N 36°39' W 009°22'1020.0
2017-Sep-11 03:30N 36°47' W 009°30'1219.6
2017-Sep-11 02:53N 36°58' W 009°35'2120.0
2017-Sep-11 01:51N 37°19' W 009°36'720.6
2017-Sep-11 01:30N 37°26' W 009°35'1020.4
2017-Sep-11 01:00N 37°36' W 009°34'1020.1
2017-Sep-11 00:30N 37°46' W 009°32'1019.9
2017-Sep-11 00:00N 37°56' W 009°31'1019.9
2017-Sep-10 23:30N 38°06' W 009°29'1020.0
2017-Sep-10 23:00N 38°16' W 009°27'1020.1
2017-Sep-10 22:30N 38°26' W 009°25'1020.2
2017-Sep-10 22:00N 38°36' W 009°23'815.5
2017-Sep-10 21:30N 38°41' W 009°16'611.9
2017-Sep-10 21:00N 38°42' W 009°08'1 1.6
2017-Sep-10 20:27N 38°43' W 009°07'0 0.0
2017-Sep-10 20:00N 38°43' W 009°07'0 0.0
2017-Sep-10 19:30N 38°43' W 009°07'0 0.0
2017-Sep-10 19:00N 38°43' W 009°07'0 0.0
2017-Sep-10 18:30N 38°43' W 009°07'0 0.0
2017-Sep-10 18:00N 38°43' W 009°07'0 0.0
2017-Sep-10 17:30N 38°43' W 009°07'0 0.0
2017-Sep-10 16:59N 38°43' W 009°07'0 0.0
2017-Sep-10 16:28N 38°43' W 009°07'0 0.0
2017-Sep-10 15:59N 38°43' W 009°07'0 0.0
2017-Sep-10 15:30N 38°43' W 009°07'0 0.0
2017-Sep-10 15:00N 38°43' W 009°07'0 0.0
2017-Sep-10 14:00N 38°43' W 009°07'0 0.0
2017-Sep-10 13:30N 38°43' W 009°07'0 0.0
2017-Sep-10 13:00N 38°43' W 009°07'0 0.0
2017-Sep-10 12:30N 38°43' W 009°07'0 0.0
2017-Sep-10 11:59N 38°43' W 009°07'0 1.0
2017-Sep-10 11:31N 38°43' W 009°07'5 9.2
2017-Sep-10 11:00N 38°41' W 009°12'612.5
2017-Sep-10 10:30N 38°39' W 009°20'815.6
2017-Sep-10 10:00N 38°35' W 009°28'1019.2
2017-Sep-10 09:30N 38°34' W 009°40'918.9
2017-Sep-10 09:00N 38°33' W 009°53'918.1
2017-Sep-10 08:30N 38°35' W 010°04'1019.3
2017-Sep-10 08:00N 38°45' W 010°06'1019.8
2017-Sep-10 07:30N 38°55' W 010°06'1121.4
2017-Sep-10 07:00N 39°06' W 010°06'1121.3
2017-Sep-10 06:30N 39°16' W 010°06'1120.9
2017-Sep-10 06:00N 39°27' W 010°06'1121.2
2017-Sep-10 05:30N 39°37' W 010°06'  

Dump ship's entire track history